Latest Weather Observations for Degrussa Aerodrome

IDW60801

Issued at 12:43 pm WST Tuesday 10 December 2019 (issued every 10 minutes, with the page automatically refreshed every 10 minutes)

About weather observations | Map of weather stations | Latest weather observations for WA | Other Formats
Station Details ID: 507500 Name: DEGRUSSA AERODROME Lat: -25.56 Lon: 119.29 Height: 550.91 m
Data from the previous 72 hours. | See also: Recent months for locations in Western Australia
Date/Time
WST
Temp
°C
App
Temp
°C
Dew
Point
°C
Rel
Hum
%
Delta-T
°C
Wind Press
QNH
hPa
Press
MSL
hPa
Rain since
9am
mm
Dir  Spd
km/h
Gust
km/h
Spd
kts
Gust
kts
10/12:30pm 40.1 35.9 7.5 14 19.0 NE 19 32 10 17 1012.8 1008.5 0.0
10/12:00pm 40.2 36.0 7.6 14 19.0 ENE 19 33 10 18 1013.3 1008.9 0.0
10/11:30am 38.5 33.9 8.2 16 17.7 ENE 22 41 12 22 1013.8 1009.4 0.0
10/11:00am 38.3 33.3 8.1 16 17.6 NE 24 37 13 20 1014.2 1009.8 0.0
10/10:30am 36.6 32.3 9.2 19 16.1 ENE 22 41 12 22 1014.6 1010.3 0.0
10/10:00am 35.8 31.1 9.3 20 15.6 NE 24 37 13 20 1015.0 1010.7 0.0
10/09:30am 34.4 29.2 8.9 21 14.8 E 26 39 14 21 1015.0 1010.7 0.0
10/09:00am 33.4 27.4 8.8 22 14.2 E 30 41 16 22 1015.2 1010.8 0.0
10/08:30am 32.3 25.9 8.5 23 13.6 E 32 44 17 24 1015.0 1010.7 0.0
10/08:00am 31.7 25.7 8.7 24 13.1 E 30 41 16 22 1015.0 1010.7 0.0
10/07:44am 31.1 24.8 8.8 25 12.7 E 32 50 17 27 1015.0 1010.7 0.0
10/07:30am 30.4 23.5 8.7 26 12.3 E 35 48 19 26 1014.8 1010.5 0.0
10/07:00am 29.6 22.3 8.6 27 11.9 E 37 50 20 27 1014.5 1010.2 0.0
10/06:40am 29.1 22.4 8.2 27 11.7 ESE 33 52 18 28 1014.5 1010.2 0.0
10/06:30am 29.0 22.3 8.1 27 11.7 ESE 33 43 18 23 1014.3 1010.0 0.0
10/06:00am 28.4 22.6 8.1 28 11.3 ESE 28 39 15 21 1014.2 1009.8 0.0
10/05:30am 28.0 23.4 8.3 29 11.0 ESE 22 32 12 17 1014.1 1009.7 0.0
10/05:00am 28.1 23.4 7.9 28 11.2 ESE 22 28 12 15 1013.9 1009.5 0.0
10/04:30am 28.6 24.0 8.3 28 11.4 ESE 22 32 12 17 1013.6 1009.2 0.0
10/04:00am 29.0 24.0 8.1 27 11.7 ESE 24 32 13 17 1013.1 1008.8 0.0
10/03:30am 29.4 23.6 7.9 26 12.0 ESE 28 37 15 20 1012.9 1008.6 0.0
10/03:00am 29.8 24.7 7.7 25 12.3 ESE 24 33 13 18 1012.9 1008.6 0.0
10/02:30am 30.2 25.2 8.0 25 12.5 ESE 24 37 13 20 1012.8 1008.5 0.0
10/02:00am 30.6 25.1 7.7 24 12.8 ESE 26 33 14 18 1012.6 1008.3 0.0
10/01:30am 31.1 25.2 7.5 23 13.2 ESE 28 37 15 20 1012.6 1008.3 0.0
10/01:00am 31.5 25.5 7.2 22 13.6 ESE 28 35 15 19 1012.5 1008.1 0.0
10/12:30am 31.6 26.6 6.6 21 13.8 ESE 22 33 12 18 1012.6 1008.3 0.0
10/12:00am 31.8 27.5 6.8 21 13.9 ESE 19 24 10 13 1012.8 1008.5 0.0
 
Date/Time
WST
Temp
°C
App
Temp
°C
Dew
Point
°C
Rel
Hum
%
Delta-T
°C
Wind Press
QNH
hPa
Press
MSL
hPa
Rain since
9am
mm
Dir  Spd
km/h
Gust
km/h
Spd
kts
Gust
kts
09/11:30pm 32.1 28.0 6.3 20 14.2 SE 17 22 9 12 1012.9 1008.6 0.0
09/11:00pm 32.6 28.6 6.7 20 14.4 ESE 17 24 9 13 1012.9 1008.6 0.0
09/10:30pm 33.1 28.7 6.4 19 14.8 ESE 19 26 10 14 1013.0 1008.7 0.0
09/10:00pm 33.6 29.3 6.8 19 15.0 ESE 19 24 10 13 1013.1 1008.8 0.0
09/09:30pm 33.9 30.0 7.0 19 15.1 SE 17 19 9 10 1013.1 1008.8 0.0
09/09:00pm 34.5 30.5 6.7 18 15.6 SE 17 22 9 12 1013.0 1008.7 0.0
09/08:30pm 35.2 30.8 6.5 17 16.1 SE 19 24 10 13 1012.7 1008.4 0.0
09/08:00pm 35.8 32.1 4.2 14 17.2 SSE 13 19 7 10 1012.5 1008.1 0.0
09/07:30pm 36.5 33.6 4.7 14 17.5 SE 9 13 5 7 1012.3 1007.9 0.0
09/07:00pm 37.3 34.3 4.3 13 18.1 SE 9 11 5 6 1012.0 1007.6 0.0
09/06:30pm 38.1 35.4 3.8 12 18.7 ESE 7 15 4 8 1011.8 1007.4 0.0
09/06:00pm 38.7 36.8 3.0 11 19.4 NW 2 6 1 3 1011.6 1007.2 0.0
09/05:30pm 38.2 35.5 2.6 11 19.1 NW 6 13 3 7 1011.4 1007.0 0.0
09/05:00pm 39.4 37.2 3.5 11 19.7 WSW 4 11 2 6 1011.2 1006.9 0.0
09/04:30pm 38.8 36.0 3.1 11 19.4 ENE 7 13 4 7 1011.2 1006.9 0.0
09/04:00pm 38.8 36.4 4.3 12 19.1 NE 6 11 3 6 1011.4 1007.0 0.0
09/03:30pm 38.1 34.7 3.8 12 18.7 NE 11 24 6 13 1011.7 1007.3 0.0
09/03:00pm 39.1 36.3 1.9 10 19.9 ESE 6 13 3 7 1011.9 1007.5 0.0
09/02:30pm 38.8 35.7 5.4 13 18.8 NNE 11 19 6 10 1012.2 1007.8 0.0
09/02:00pm 37.4 35.0 5.4 14 17.9 NNW 7 17 4 9 1012.5 1008.1 0.0
09/01:30pm 38.1 35.1 6.0 14 18.1 SSE 11 22 6 12 1012.9 1008.6 0.0
09/01:00pm 37.7 35.6 6.6 15 17.7 SW 7 15 4 8 1013.3 1008.9 0.0
09/12:30pm 38.0 34.6 7.8 16 17.5 E 15 30 8 16 1013.7 1009.3 0.0
09/12:00pm 37.7 33.5 7.6 16 17.4 E 19 28 10 15 1014.1 1009.7 0.0
09/11:30am 36.2 32.0 7.3 17 16.5 E 19 28 10 15 1014.5 1010.2 0.0
09/11:00am 36.7 32.6 7.7 17 16.7 NE 19 33 10 18 1014.8 1010.5 0.0
09/10:30am 35.5 31.1 7.6 18 16.0 E 20 33 11 18 1015.2 1010.8 0.0
09/10:00am 34.9 30.2 9.3 21 15.0 ENE 24 37 13 20 1015.3 1010.9 0.0
09/09:30am 33.5 28.1 9.5 23 14.0 E 28 41 15 22 1015.6 1011.2 0.0
09/09:00am 32.4 26.2 9.2 24 13.4 E 32 41 17 22 1015.7 1011.3 0.0
09/08:30am 31.7 25.5 8.0 23 13.4 E 30 39 16 21 1015.7 1011.3 0.0
09/08:13am 31.1 25.4 8.2 24 12.9 E 28 46 15 25 1015.7 1011.3 0.0
09/08:00am 30.5 23.8 8.3 25 12.5 E 33 43 18 23 1015.6 1011.2 0.0
09/07:30am 29.5 22.8 5.6 22 12.8 ESE 30 41 16 22 1015.3 1010.9 0.0
09/07:00am 28.2 20.6 3.1 20 12.8 ESE 32 43 17 23 1014.8 1010.5 0.0
09/06:30am 27.5 20.9 1.8 19 12.8 SE 26 35 14 19 1014.7 1010.4 0.0
09/06:00am 26.4 20.3 0.2 18 12.6 SE 22 30 12 16 1014.5 1010.2 0.0
09/05:30am 25.7 19.9 -1.2 17 12.5 SE 19 26 10 14 1014.2 1009.8 0.0
09/05:00am 25.7 20.3 -1.2 17 12.5 SE 17 22 9 12 1013.8 1009.4 0.0
09/04:30am 25.9 20.3 -0.2 18 12.4 SE 19 26 10 14 1013.7 1009.3 0.0
09/04:00am 26.1 20.6 0.7 19 12.3 SE 19 28 10 15 1013.6 1009.2 0.0
09/03:30am 26.5 20.6 1.7 20 12.2 SE 22 32 12 17 1013.6 1009.2 0.0
09/03:00am 26.6 21.4 2.5 21 12.1 SE 19 26 10 14 1013.6 1009.2 0.0
09/02:30am 26.9 21.5 2.7 21 12.2 SE 20 28 11 15 1013.5 1009.1 0.0
09/02:00am 27.0 21.9 2.8 21 12.2 SSE 19 30 10 16 1013.7 1009.3 0.0
09/01:30am 27.4 22.1 3.2 21 12.3 SSE 20 26 11 14 1013.8 1009.4 0.0
09/01:00am 27.5 22.2 3.2 21 12.4 SSE 20 26 11 14 1014.1 1009.7 0.0
09/12:30am 27.7 22.5 3.4 21 12.4 SSE 20 26 11 14 1014.1 1009.7 0.0
09/12:00am 28.2 23.2 3.8 21 12.6 S 19 28 10 15 1014.3 1010.0 0.0
 
Date/Time
WST
Temp
°C
App
Temp
°C
Dew
Point
°C
Rel
Hum
%
Delta-T
°C
Wind Press
QNH
hPa
Press
MSL
hPa
Rain since
9am
mm
Dir  Spd
km/h
Gust
km/h
Spd
kts
Gust
kts
08/11:30pm 28.7 23.5 3.5 20 13.0 S 20 26 11 14 1014.4 1010.1 0.0
08/11:00pm 28.9 23.9 3.7 20 13.1 S 19 26 10 14 1014.5 1010.2 0.0
08/10:30pm 29.5 25.2 3.5 19 13.5 S 15 22 8 12 1014.5 1010.2 0.0
08/10:00pm 30.1 26.3 4.0 19 13.7 S 13 15 7 8 1014.6 1010.3 0.0
08/09:30pm 30.9 26.8 4.6 19 14.0 SSW 15 20 8 11 1014.3 1010.0 0.0
08/09:00pm 31.5 27.0 4.3 18 14.5 SSW 17 20 9 11 1014.2 1009.8 0.0
08/08:30pm 32.1 27.7 4.8 18 14.7 SW 17 22 9 12 1014.0 1009.6 0.0
08/08:00pm 32.7 28.3 4.5 17 15.1 SW 17 20 9 11 1013.8 1009.4 0.0
08/07:30pm 33.3 29.2 4.1 16 15.6 SW 15 22 8 12 1013.6 1009.2 0.0
08/07:00pm 33.9 29.8 4.6 16 15.9 W 15 22 8 12 1013.0 1008.7 0.0
08/06:30pm 34.5 29.4 4.1 15 16.4 WSW 20 28 11 15 1012.5 1008.1 0.0
08/06:00pm 35.1 30.1 3.6 14 16.9 WSW 19 28 10 15 1012.1 1007.7 0.0
08/05:30pm 35.6 30.7 4.0 14 17.1 W 19 33 10 18 1011.9 1007.5 0.0
08/05:00pm 35.7 30.2 4.1 14 17.2 W 22 35 12 19 1011.7 1007.3 0.0
08/04:30pm 36.5 31.9 3.7 13 17.7 WSW 17 37 9 20 1011.6 1007.2 0.0
08/04:00pm 37.1 31.6 4.1 13 18.0 WNW 22 35 12 19 1011.6 1007.2 0.0
08/03:47pm 36.5 29.8 3.7 13 17.7 W 28 41 15 22 1011.6 1007.2 0.0
08/03:30pm 36.0 32.7 4.3 14 17.3 W 11 22 6 12 1011.9 1007.5 0.0
08/03:00pm 36.3 31.9 4.6 14 17.4 WNW 17 37 9 20 1012.2 1007.8 0.0
08/02:30pm 36.2 32.1 4.5 14 17.3 WNW 15 32 8 17 1012.4 1008.0 0.0
08/02:00pm 36.2 31.4 4.5 14 17.4 WNW 19 39 10 21 1012.6 1008.3 0.0
08/01:30pm 36.1 31.5 5.4 15 17.0 W 19 35 10 19 1013.0 1008.7 0.0
08/01:00pm 35.1 30.3 4.6 15 16.6 WSW 19 39 10 21 1013.4 1009.0 0.0
08/12:30pm 34.8 30.5 5.3 16 16.2 SW 17 30 9 16 1013.7 1009.3 0.0
08/12:00pm 34.6 30.1 6.0 17 15.9 SSW 19 30 10 16 1014.1 1009.7 0.0
08/11:30am 34.3 31.0 6.6 18 15.5 SSW 13 26 7 14 1014.4 1010.1 0.0
08/11:00am 33.1 30.3 7.1 20 14.6 SSE 11 24 6 13 1014.7 1010.4 0.0
08/10:30am 32.4 29.5 6.6 20 14.3 SSW 11 22 6 12 1015.2 1010.8 0.0
08/10:00am 31.3 27.6 6.4 21 13.7 S 15 28 8 15 1015.4 1011.0 0.0
08/09:30am 30.7 27.1 6.6 22 13.3 SSW 15 28 8 15 1015.6 1011.2 0.0
08/09:00am 30.2 26.2 6.8 23 12.9 S 17 32 9 17 1015.6 1011.2 0.0
08/08:30am 30.2 26.4 7.4 24 12.7 SSE 17 28 9 15 1015.6 1011.2 0.0
08/08:00am 29.0 25.1 8.7 28 11.4 SSE 19 26 10 14 1015.6 1011.2 0.0
08/07:30am 28.0 23.8 8.3 29 11.0 S 20 26 11 14 1015.6 1011.2 0.0
08/07:00am 27.0 23.0 8.4 31 10.3 S 19 24 10 13 1015.3 1010.9 0.0
08/06:30am 26.2 22.0 8.2 32 9.9 S 20 28 11 15 1015.0 1010.7 0.0
08/06:00am 25.4 21.9 7.1 31 9.9 SSW 15 19 8 10 1014.8 1010.5 0.0
08/05:30am 24.9 22.0 6.6 31 9.8 S 11 13 6 7 1014.4 1010.1 0.0
08/05:00am 25.2 21.5 6.4 30 10.0 S 15 20 8 11 1013.8 1009.4 0.0
08/04:30am 25.5 21.3 5.7 28 10.4 SSW 17 22 9 12 1013.5 1009.1 0.0
08/04:00am 25.2 21.9 4.3 26 10.7 SSW 11 13 6 7 1013.3 1008.9 0.0
08/03:30am 25.6 23.1 4.7 26 10.8 S 7 9 4 5 1012.9 1008.6 0.0
08/03:00am 26.5 23.5 4.3 24 11.5 SSW 9 11 5 6 1012.6 1008.3 0.0
08/02:30am 27.6 23.9 4.6 23 12.0 SSW 13 17 7 9 1012.3 1007.9 0.0
08/02:00am 28.4 23.4 4.6 22 12.5 SSW 20 28 11 15 1012.4 1008.0 0.0
08/01:30am 28.7 24.2 4.2 21 12.8 SSW 17 20 9 11 1012.3 1007.9 0.0
08/01:00am 29.6 23.8 4.3 20 13.3 SSW 24 35 13 19 1012.4 1008.0 0.0
08/12:30am 30.1 23.8 4.0 19 13.7 SW 26 35 14 19 1012.2 1007.8 0.0
08/12:00am 30.9 24.5 3.0 17 14.5 SW 26 33 14 18 1012.1 1007.7 0.0
 
Date/Time
WST
Temp
°C
App
Temp
°C
Dew
Point
°C
Rel
Hum
%
Delta-T
°C
Wind Press
QNH
hPa
Press
MSL
hPa
Rain since
9am
mm
Dir  Spd
km/h
Gust
km/h
Spd
kts
Gust
kts
07/11:56pm 31.0 24.2 3.1 17 14.5 SSW 28 46 15 25 1012.1 1007.7 0.0
07/11:30pm 31.2 26.4 2.4 16 14.8 SSW 17 30 9 16 1011.9 1007.5 0.0
07/11:00pm 31.8 26.5 2.0 15 15.3 SSW 19 26 10 14 1011.9 1007.5 0.0
07/10:30pm 32.3 26.7 1.4 14 15.7 SW 20 28 11 15 1011.9 1007.5 0.0
07/10:00pm 32.9 27.3 0.9 13 16.2 SW 20 26 11 14 1011.8 1007.4 0.0
07/09:30pm 33.3 27.9 1.2 13 16.4 SW 19 24 10 13 1011.7 1007.3 0.0
07/09:00pm 33.8 27.9 1.6 13 16.6 SW 22 30 12 16 1011.5 1007.1 0.0
07/08:30pm 34.2 28.3 1.9 13 16.8 SW 22 32 12 17 1011.4 1007.0 0.0
07/08:00pm 34.7 28.3 1.1 12 17.3 SW 24 32 13 17 1011.0 1006.7 0.0
07/07:30pm 35.2 28.9 1.5 12 17.5 SW 24 37 13 20 1010.5 1006.1 0.0
07/07:00pm 35.8 29.4 0.8 11 18.1 SW 24 33 13 18 1010.1 1005.7 0.0
07/06:30pm 36.6 28.8 1.4 11 18.4 SW 32 41 17 22 1009.7 1005.3 0.0
07/06:00pm 37.3 29.3 0.6 10 19.0 SW 32 48 17 26 1009.0 1004.6 0.0
07/05:30pm 38.5 31.0 1.5 10 19.6 WSW 30 41 16 22 1008.7 1004.3 0.0
07/05:00pm 39.1 32.1 1.9 10 19.9 WSW 28 41 15 22 1008.5 1004.1 0.0
07/04:30pm 38.9 33.0 1.8 10 19.7 WSW 22 32 12 17 1008.4 1004.0 0.0
07/04:00pm 39.8 33.4 1.0 9 20.6 W 24 44 13 24 1008.3 1003.9 0.0
07/03:30pm 41.1 35.6 2.0 9 21.1 WNW 20 33 11 18 1008.2 1003.8 0.0
07/03:00pm 38.5 33.1 1.5 10 19.6 NW 19 33 10 18 1008.7 1004.3 0.0
07/02:30pm 38.9 33.6 3.1 11 19.4 WNW 20 28 11 15 1008.8 1004.4 0.0
07/02:00pm 41.0 35.0 3.4 10 20.8 NNW 24 35 13 19 1008.9 1004.5 0.0
07/01:30pm 39.0 35.4 3.2 11 19.5 WNW 11 28 6 15 1009.3 1005.0 0.0
07/01:00pm 38.6 34.2 2.9 11 19.3 W 15 32 8 17 1009.7 1005.3 0.0

Other formats

Comma delimited format used in spreadsheet applications
http://www.bom.gov.au/fwo/IDW60801/IDW60801.99400.axf

JavaScript Object Notation format (JSON) in row-major order
http://www.bom.gov.au/fwo/IDW60801/IDW60801.99400.json

Data quality

Most of these data are generated automatically and are frequently updated. Quality checks on data are not normally performed. It is possible for incorrect values to appear. Refer to information at About Latest Weather Observations and please check the disclaimer before using these data.